Time;durP1;ratioP1;P1;durP2;ratioP2;P2;SDS_P1;SDS_P2;PMS_P1;PMS_P2;Temp;Humidity;BMP_temperature;BMP_pressure;BME280_temperature;BME280_humidity;BME280_pressure;Samples;Min_cycle;Max_cycle;Signal;HPM_P1;HPM_P2
2021/08/11 00:00:31;;;;;;;4.07;3.50;;;23.50;99.90;;;;;;5090904;28;20626;-73
2021/08/11 00:02:58;;;;;;;3.60;3.15;;;23.50;99.90;;;;;;5090458;28;20267;-74
2021/08/11 00:05:25;;;;;;;4.28;3.60;;;23.40;99.90;;;;;;5091099;28;20233;-73
2021/08/11 00:07:53;;;;;;;3.78;3.47;;;23.40;99.90;;;;;;5089999;28;20202;-74
2021/08/11 00:10:20;;;;;;;5.55;3.53;;;23.40;99.90;;;;;;5091093;28;20266;-73
2021/08/11 00:12:46;;;;;;;3.65;3.35;;;23.40;99.90;;;;;;5090281;28;20673;-73
2021/08/11 00:15:14;;;;;;;3.95;3.55;;;23.30;99.90;;;;;;5091116;28;20227;-73
2021/08/11 00:17:42;;;;;;;3.67;3.38;;;23.20;99.90;;;;;;5090899;28;20215;-73
2021/08/11 00:20:10;;;;;;;4.47;3.35;;;23.20;99.90;;;;;;5090629;28;20592;-74
2021/08/11 00:22:37;;;;;;;4.00;3.60;;;23.10;99.90;;;;;;5090565;28;20255;-74
2021/08/11 00:25:04;;;;;;;3.92;3.63;;;23.10;99.90;;;;;;5089932;28;20229;-73
2021/08/11 00:27:31;;;;;;;3.92;3.30;;;23.10;99.90;;;;;;5090526;28;20262;-74
2021/08/11 00:30:00;;;;;;;5.63;3.60;;;23.10;99.90;;;;;;5089940;28;20657;-73
2021/08/11 00:32:27;;;;;;;5.90;4.05;;;23.10;99.90;;;;;;5090567;28;20212;-73
2021/08/11 00:34:56;;;;;;;4.05;3.75;;;23.20;99.90;;;;;;5089826;28;20744;-73
2021/08/11 00:37:23;;;;;;;5.93;3.55;;;23.10;99.90;;;;;;5090470;28;20684;-73
2021/08/11 00:39:50;;;;;;;4.22;2.95;;;23.10;99.90;;;;;;5090056;28;20578;-74
2021/08/11 00:42:17;;;;;;;4.15;3.70;;;23.10;99.90;;;;;;5090417;28;20631;-73
2021/08/11 00:44:44;;;;;;;3.42;3.00;;;23.00;99.90;;;;;;5090581;28;20233;-73
2021/08/11 00:47:11;;;;;;;4.07;3.67;;;22.90;99.90;;;;;;5090350;28;20237;-73
2021/08/11 00:49:43;;;;;;;7.15;4.20;;;22.70;99.90;;;;;;5090309;28;20205;-74
2021/08/11 00:52:11;;;;;;;3.45;3.15;;;22.80;99.90;;;;;;5090281;28;20251;-74
2021/08/11 00:54:38;;;;;;;3.83;3.50;;;22.80;99.90;;;;;;5090367;28;20205;-73
2021/08/11 00:57:06;;;;;;;3.72;3.38;;;22.70;99.90;;;;;;5090138;28;21039;-74
2021/08/11 00:59:36;;;;;;;3.75;3.45;;;22.70;99.90;;;;;;5090296;28;20205;-73
2021/08/11 01:02:04;;;;;;;6.22;4.03;;;22.70;99.90;;;;;;5090049;28;20262;-74
2021/08/11 01:04:32;;;;;;;5.65;3.63;;;22.70;99.90;;;;;;5090231;28;20229;-73
2021/08/11 01:07:02;;;;;;;4.13;3.83;;;22.70;99.90;;;;;;5089837;28;20208;-73
2021/08/11 01:09:32;;;;;;;6.45;3.92;;;22.80;99.90;;;;;;5090290;28;20197;-73
2021/08/11 01:11:59;;;;;;;4.78;4.03;;;22.70;99.90;;;;;;5090127;28;20263;-74
2021/08/11 01:14:29;;;;;;;4.93;3.50;;;22.70;99.90;;;;;;5089971;28;20210;-73
2021/08/11 01:16:56;;;;;;;4.13;3.72;;;22.70;99.90;;;;;;5090220;28;20208;-73
2021/08/11 01:19:25;;;;;;;6.13;4.28;;;22.70;99.90;;;;;;5089646;28;20625;-74
2021/08/11 01:21:58;;;;;;;4.90;4.10;;;22.60;99.90;;;;;;5093261;28;20288;-74
2021/08/11 01:24:36;;;;;;;5.10;3.95;;;22.70;99.90;;;;;;5093809;28;20201;-74
2021/08/11 01:27:40;;;;;;;5.55;4.05;;;22.70;99.90;;;;;;5093596;28;20212;-74
2021/08/11 01:30:12;;;;;;;6.53;4.28;;;22.70;99.90;;;;;;5093015;28;20205;-73
2021/08/11 01:33:06;;;;;;;4.70;3.92;;;22.70;99.90;;;;;;5094040;28;20250;-74
2021/08/11 01:35:40;;;;;;;6.47;3.40;;;22.70;99.90;;;;;;5084759;28;20205;-74
2021/08/11 01:38:11;;;;;;;5.68;4.85;;;22.60;99.90;;;;;;5093115;28;20213;-74
2021/08/11 01:40:39;;;;;;;4.43;3.92;;;22.60;99.90;;;;;;5093702;28;20206;-74
2021/08/11 01:43:07;;;;;;;4.60;4.20;;;22.50;99.90;;;;;;5093036;28;20813;-74
2021/08/11 01:45:39;;;;;;;4.70;4.00;;;22.50;99.90;;;;;;5093875;28;20294;-74
2021/08/11 01:48:09;;;;;;;4.72;4.20;;;22.50;99.90;;;;;;5093438;28;20217;-74
2021/08/11 01:50:39;;;;;;;5.53;4.80;;;22.60;99.90;;;;;;5093611;28;20690;-74
2021/08/11 01:53:09;;;;;;;9.52;4.70;;;22.50;99.90;;;;;;5092956;28;20209;-73
2021/08/11 01:55:36;;;;;;;6.10;4.35;;;22.50;99.90;;;;;;5093238;28;20580;-74
2021/08/11 01:58:04;;;;;;;5.57;5.00;;;22.50;99.90;;;;;;5093133;28;20209;-73
2021/08/11 02:00:32;;;;;;;5.13;4.63;;;22.50;99.90;;;;;;5093247;28;20258;-73
2021/08/11 02:03:00;;;;;;;4.63;4.22;;;22.50;99.90;;;;;;5092968;28;20201;-74
2021/08/11 02:05:30;;;;;;;8.20;4.95;;;22.60;99.90;;;;;;5093142;28;20237;-74
2021/08/11 02:08:00;;;;;;;6.38;5.38;;;22.60;99.90;;;;;;5092767;28;20205;-74
2021/08/11 02:10:29;;;;;;;6.75;5.15;;;22.50;99.90;;;;;;5100384;28;20212;-73
2021/08/11 02:12:57;;;;;;;5.35;4.85;;;22.50;99.90;;;;;;5112980;27;20209;-73
2021/08/11 02:15:24;;;;;;;6.25;5.65;;;22.40;99.90;;;;;;5103845;28;20623;-74
2021/08/11 02:17:52;;;;;;;9.80;5.43;;;22.30;99.90;;;;;;5093895;28;20740;-74
2021/08/11 02:20:19;;;;;;;7.45;5.60;;;22.30;99.90;;;;;;5105585;28;20213;-74
2021/08/11 02:22:46;;;;;;;5.70;5.13;;;22.30;99.90;;;;;;5092313;28;20738;-73
2021/08/11 02:25:15;;;;;;;5.05;4.65;;;22.30;99.90;;;;;;5093028;28;20645;-73
2021/08/11 02:27:48;;;;;;;8.18;6.03;;;22.20;99.90;;;;;;5105524;28;20209;-74
2021/08/11 02:30:16;;;;;;;4.85;4.38;;;22.20;99.90;;;;;;5093287;28;20620;-74
2021/08/11 02:32:52;;;;;;;8.13;5.57;;;22.20;99.90;;;;;;5092751;28;20232;-74
2021/08/11 02:35:24;;;;;;;6.45;4.95;;;22.20;99.90;;;;;;5092600;28;20254;-73
2021/08/11 02:37:56;;;;;;;10.45;6.05;;;22.30;99.90;;;;;;5092234;28;20206;-74
2021/08/11 02:40:34;;;;;;;6.78;5.75;;;22.30;99.90;;;;;;5092421;28;20687;-74
2021/08/11 02:43:06;;;;;;;6.00;5.13;;;22.30;99.90;;;;;;5091909;28;20217;-74
2021/08/11 02:45:34;;;;;;;8.13;5.35;;;22.20;99.90;;;;;;5106570;28;20279;-74
2021/08/11 02:48:02;;;;;;;6.82;6.15;;;22.30;99.90;;;;;;5092376;28;20213;-74
2021/08/11 02:50:29;;;;;;;5.82;5.32;;;22.20;99.90;;;;;;5092344;28;20206;-74
2021/08/11 02:52:57;;;;;;;8.88;6.45;;;22.00;99.90;;;;;;5091986;28;20206;-74
2021/08/11 02:55:27;;;;;;;6.90;5.93;;;22.00;99.90;;;;;;5091756;28;20259;-73
2021/08/11 02:57:55;;;;;;;7.07;5.78;;;22.00;99.90;;;;;;5092114;28;20279;-74
2021/08/11 03:00:22;;;;;;;7.93;6.72;;;22.10;99.90;;;;;;5092192;28;20209;-74
2021/08/11 03:02:50;;;;;;;9.75;6.15;;;22.00;99.90;;;;;;5091889;28;20219;-73
2021/08/11 03:05:17;;;;;;;10.48;5.55;;;21.90;99.90;;;;;;5091949;28;20228;-74
2021/08/11 03:07:45;;;;;;;8.00;5.70;;;21.90;99.90;;;;;;5092213;28;20197;-74
2021/08/11 03:10:12;;;;;;;6.70;6.10;;;21.90;99.90;;;;;;5092099;28;20266;-73
2021/08/11 03:12:45;;;;;;;7.15;5.90;;;22.00;99.90;;;;;;5092154;28;20206;-73
2021/08/11 03:15:13;;;;;;;7.45;6.22;;;21.90;99.90;;;;;;5092058;28;20617;-74
2021/08/11 03:17:40;;;;;;;10.10;6.53;;;22.00;99.90;;;;;;5093924;28;20574;-74
2021/08/11 03:20:09;;;;;;;8.18;6.43;;;22.00;99.90;;;;;;5103022;28;20255;-73
2021/08/11 03:22:36;;;;;;;6.90;5.72;;;22.00;99.90;;;;;;5091363;28;20210;-73
2021/08/11 03:25:03;;;;;;;6.68;6.03;;;22.00;99.90;;;;;;5098444;28;20250;-73
2021/08/11 03:27:30;;;;;;;7.18;5.88;;;22.00;99.90;;;;;;5098844;28;20209;-74
2021/08/11 03:29:58;;;;;;;7.40;5.90;;;22.00;99.90;;;;;;5091092;28;20206;-73
2021/08/11 03:32:25;;;;;;;7.18;6.10;;;22.00;99.90;;;;;;5091542;28;20742;-73
2021/08/11 03:34:52;;;;;;;6.72;5.35;;;21.90;99.90;;;;;;5090754;28;20205;-74
2021/08/11 03:37:19;;;;;;;8.00;6.32;;;21.90;99.90;;;;;;5091772;28;20270;-74
2021/08/11 03:39:46;;;;;;;6.97;6.28;;;21.90;99.90;;;;;;5090707;28;20753;-73
2021/08/11 03:42:13;;;;;;;7.60;5.70;;;21.90;99.90;;;;;;5091748;28;20267;-74
2021/08/11 03:44:40;;;;;;;9.10;7.15;;;21.80;99.90;;;;;;5090697;28;20270;-74
2021/08/11 03:47:09;;;;;;;6.85;6.10;;;21.80;99.90;;;;;;5090739;28;20229;-74
2021/08/11 03:49:36;;;;;;;9.70;5.78;;;21.90;99.90;;;;;;5091103;28;20206;-73
2021/08/11 03:52:03;;;;;;;7.15;6.05;;;21.80;99.90;;;;;;5090540;28;20240;-74
2021/08/11 03:54:30;;;;;;;8.18;7.15;;;21.80;99.90;;;;;;5091195;28;20251;-74
2021/08/11 03:56:57;;;;;;;6.97;5.85;;;21.80;99.90;;;;;;5090714;28;20197;-74
2021/08/11 03:59:24;;;;;;;7.13;5.88;;;21.80;99.90;;;;;;5091008;28;20217;-72
2021/08/11 04:01:53;;;;;;;7.60;6.10;;;21.80;99.90;;;;;;5090277;28;20209;-73
2021/08/11 04:04:22;;;;;;;9.40;6.85;;;21.80;99.90;;;;;;5090976;28;20205;-74
2021/08/11 04:06:49;;;;;;;10.35;6.47;;;21.90;99.90;;;;;;5090308;28;20286;-73
2021/08/11 04:09:17;;;;;;;8.45;6.57;;;21.80;99.90;;;;;;5090767;28;20205;-74
2021/08/11 04:11:45;;;;;;;8.50;5.82;;;21.60;99.90;;;;;;5091142;28;20209;-74
2021/08/11 04:14:12;;;;;;;10.23;6.18;;;21.60;99.90;;;;;;5091107;28;20300;-74
2021/08/11 04:16:39;;;;;;;7.45;6.75;;;21.50;99.90;;;;;;5090850;28;20692;-74
2021/08/11 04:19:06;;;;;;;10.80;6.05;;;21.60;99.90;;;;;;5104343;28;20251;-73
2021/08/11 04:21:35;;;;;;;7.65;5.93;;;21.70;99.90;;;;;;5077046;28;20254;-74
2021/08/11 04:24:01;;;;;;;9.63;5.90;;;21.70;99.90;;;;;;5090167;28;20669;-74
2021/08/11 04:26:28;;;;;;;9.07;6.43;;;21.70;99.90;;;;;;5090614;28;20225;-75
2021/08/11 04:28:55;;;;;;;7.15;6.45;;;21.60;99.90;;;;;;5090411;28;20259;-74
2021/08/11 04:31:22;;;;;;;6.72;6.03;;;21.70;99.90;;;;;;5090651;28;20977;-74
2021/08/11 04:33:49;;;;;;;7.40;6.15;;;21.70;99.90;;;;;;5090356;28;20209;-75
2021/08/11 04:36:16;;;;;;;6.85;6.10;;;21.70;99.90;;;;;;5090548;28;20355;-75
2021/08/11 04:38:45;;;;;;;6.40;5.80;;;21.70;99.90;;;;;;5090618;28;20205;-73
2021/08/11 04:41:13;;;;;;;6.75;5.72;;;21.70;99.90;;;;;;5091135;28;20213;-74
2021/08/11 04:43:40;;;;;;;8.38;5.90;;;21.60;99.90;;;;;;5076798;28;20216;-75
2021/08/11 04:46:08;;;;;;;7.10;5.55;;;21.60;99.90;;;;;;5090239;28;20225;-74
2021/08/11 04:48:35;;;;;;;6.30;5.68;;;21.60;99.90;;;;;;5090416;28;20205;-74
2021/08/11 04:51:02;;;;;;;7.72;5.85;;;21.50;99.90;;;;;;5090167;28;20258;-74
2021/08/11 04:53:29;;;;;;;7.07;6.38;;;21.60;99.90;;;;;;5090178;28;20205;-75
2021/08/11 04:55:57;;;;;;;6.53;5.80;;;21.60;99.90;;;;;;5091688;28;20209;-74
2021/08/11 04:58:24;;;;;;;7.25;5.72;;;21.50;99.90;;;;;;5094010;28;20205;-75
2021/08/11 05:00:51;;;;;;;7.57;5.93;;;21.50;99.90;;;;;;5093774;28;20275;-74
2021/08/11 05:03:18;;;;;;;8.00;6.13;;;21.50;99.90;;;;;;5094466;28;20205;-75
2021/08/11 05:05:45;;;;;;;9.63;6.22;;;21.60;99.90;;;;;;5094294;28;20225;-74
2021/08/11 05:08:12;;;;;;;7.40;6.05;;;21.50;99.90;;;;;;5094842;28;20270;-74
2021/08/11 05:10:39;;;;;;;8.73;6.20;;;21.50;99.90;;;;;;5094129;28;20602;-73
2021/08/11 05:13:07;;;;;;;8.27;6.13;;;21.50;99.90;;;;;;5094169;28;20620;-74
2021/08/11 05:15:34;;;;;;;7.82;5.97;;;21.50;99.90;;;;;;5094288;28;20214;-74
2021/08/11 05:18:01;;;;;;;8.48;5.32;;;21.50;99.90;;;;;;5099001;28;20201;-74
2021/08/11 05:20:28;;;;;;;6.45;5.90;;;21.60;99.90;;;;;;5102898;28;20629;-74
2021/08/11 05:22:55;;;;;;;8.02;5.65;;;21.70;99.90;;;;;;5093686;28;20202;-75
2021/08/11 05:25:22;;;;;;;6.65;5.07;;;21.80;99.90;;;;;;5094126;28;20271;-74
2021/08/11 05:27:49;;;;;;;10.55;5.70;;;21.90;99.90;;;;;;5093582;28;20649;-75
2021/08/11 05:30:17;;;;;;;9.98;6.25;;;21.90;99.90;;;;;;5093878;28;20669;-73
2021/08/11 05:32:44;;;;;;;5.40;4.82;;;22.00;99.90;;;;;;5093900;28;20266;-73
2021/08/11 05:35:12;;;;;;;6.72;5.88;;;22.00;99.90;;;;;;5093951;28;20206;-75
2021/08/11 05:37:39;;;;;;;6.20;5.35;;;22.00;99.90;;;;;;5094067;28;20300;-74
2021/08/11 05:40:07;;;;;;;6.53;5.25;;;21.90;99.90;;;;;;5092862;28;20642;-74
2021/08/11 05:42:34;;;;;;;6.45;4.93;;;22.00;99.90;;;;;;5093861;28;20267;-74
2021/08/11 05:45:01;;;;;;;6.60;5.40;;;22.10;99.90;;;;;;5092936;28;20629;-74
2021/08/11 05:47:29;;;;;;;8.77;5.75;;;22.20;99.90;;;;;;5093554;28;20278;-74
2021/08/11 05:49:56;;;;;;;6.68;5.22;;;22.10;99.90;;;;;;5093008;28;20255;-73
2021/08/11 05:52:23;;;;;;;9.25;5.20;;;22.10;99.90;;;;;;5093335;28;20264;-74
2021/08/11 05:54:52;;;;;;;6.50;5.28;;;22.10;99.90;;;;;;5092810;28;20209;-73
2021/08/11 05:57:19;;;;;;;5.93;5.32;;;22.10;99.90;;;;;;5093763;28;20201;-75
2021/08/11 05:59:46;;;;;;;8.85;5.47;;;22.10;99.90;;;;;;5093144;28;20197;-74
2021/08/11 06:02:13;;;;;;;5.10;4.60;;;22.10;99.90;;;;;;5093457;28;20685;-74
2021/08/11 06:04:42;;;;;;;8.43;5.60;;;22.10;99.90;;;;;;5093453;28;20254;-74
2021/08/11 06:07:09;;;;;;;5.55;4.93;;;22.20;99.90;;;;;;5092098;28;20228;-74
2021/08/11 06:09:37;;;;;;;5.30;4.80;;;22.20;99.90;;;;;;5093415;28;20251;-75
2021/08/11 06:12:04;;;;;;;6.80;5.20;;;22.20;99.90;;;;;;5092401;28;20688;-74
2021/08/11 06:14:31;;;;;;;8.43;6.18;;;22.10;99.90;;;;;;5093022;28;20292;-74
2021/08/11 06:16:58;;;;;;;6.00;5.20;;;22.00;99.90;;;;;;5092686;28;20205;-75
2021/08/11 06:19:25;;;;;;;7.28;5.55;;;22.00;99.90;;;;;;5107042;28;20262;-73
2021/08/11 06:21:53;;;;;;;6.90;6.28;;;22.10;99.90;;;;;;5092553;28;20206;-74
2021/08/11 06:24:20;;;;;;;7.75;4.35;;;22.10;99.90;;;;;;5092989;28;20210;-74
2021/08/11 06:26:47;;;;;;;5.95;5.40;;;22.10;99.90;;;;;;5092370;28;20229;-74
2021/08/11 06:29:14;;;;;;;6.45;4.93;;;22.20;99.90;;;;;;5093119;28;20209;-73
2021/08/11 06:31:41;;;;;;;6.80;4.88;;;22.30;99.90;;;;;;5092683;28;20629;-75
2021/08/11 06:34:08;;;;;;;5.40;4.78;;;22.40;99.90;;;;;;5089487;28;20262;-75
2021/08/11 06:36:35;;;;;;;6.97;4.88;;;22.60;99.90;;;;;;5090813;28;20197;-74
2021/08/11 06:39:04;;;;;;;5.93;5.22;;;22.70;99.90;;;;;;5092191;28;20206;-73
2021/08/11 06:41:31;;;;;;;7.88;5.13;;;22.70;99.90;;;;;;5091896;28;20627;-75
2021/08/11 06:43:58;;;;;;;5.32;4.82;;;22.60;99.90;;;;;;5091901;28;20673;-75
2021/08/11 06:46:25;;;;;;;7.47;5.93;;;22.70;99.90;;;;;;5092053;28;20708;-74
2021/08/11 06:48:53;;;;;;;8.38;5.28;;;22.70;99.90;;;;;;5091592;28;20664;-75
2021/08/11 06:51:20;;;;;;;5.97;5.05;;;22.60;99.90;;;;;;5092586;28;20287;-72
2021/08/11 06:53:47;;;;;;;8.05;5.50;;;22.80;99.90;;;;;;5077683;28;20202;-73
2021/08/11 06:56:15;;;;;;;5.72;5.15;;;22.90;99.90;;;;;;5092702;28;20263;-74
2021/08/11 06:58:42;;;;;;;5.30;4.53;;;23.10;99.90;;;;;;5092194;28;20734;-75
2021/08/11 07:01:09;;;;;;;6.07;4.45;;;23.30;99.90;;;;;;5091863;28;20202;-72
2021/08/11 07:03:36;;;;;;;5.55;4.57;;;23.20;99.90;;;;;;5091953;28;20580;-74
2021/08/11 07:06:03;;;;;;;6.60;5.40;;;23.20;99.90;;;;;;5100335;28;20232;-74
2021/08/11 07:08:30;;;;;;;6.95;5.55;;;23.30;99.90;;;;;;5097537;28;20262;-72
2021/08/11 07:10:57;;;;;;;5.88;5.38;;;23.30;99.90;;;;;;5091575;28;20197;-72
2021/08/11 07:13:25;;;;;;;7.93;5.00;;;23.30;99.90;;;;;;5092022;28;20242;-73
2021/08/11 07:15:54;;;;;;;6.82;4.93;;;23.20;99.90;;;;;;5091199;28;20201;-72
2021/08/11 07:18:21;;;;;;;7.10;5.13;;;23.20;99.90;;;;;;5098742;28;20232;-74
2021/08/11 07:20:49;;;;;;;5.32;4.82;;;23.40;99.90;;;;;;5097643;28;20604;-74
2021/08/11 07:23:16;;;;;;;6.35;4.68;;;23.50;99.90;;;;;;5082497;28;20201;-72
2021/08/11 07:25:43;;;;;;;5.65;5.18;;;23.70;99.90;;;;;;5109767;28;20204;-75
2021/08/11 07:28:10;;;;;;;7.50;5.53;;;23.70;99.90;;;;;;5107820;28;20229;-74
2021/08/11 07:30:39;;;;;;;6.43;5.07;;;23.70;99.90;;;;;;5110109;28;20287;-76
2021/08/11 07:33:08;;;;;;;5.88;4.97;;;23.70;99.90;;;;;;5106621;28;20664;-74
2021/08/11 07:35:36;;;;;;;5.85;4.90;;;23.70;99.90;;;;;;5081333;28;20289;-76
2021/08/11 07:38:04;;;;;;;7.05;5.80;;;23.80;99.90;;;;;;5090936;28;20213;-75
2021/08/11 07:40:32;;;;;;;7.32;5.88;;;23.90;99.90;;;;;;5091424;28;20207;-74
2021/08/11 07:43:00;;;;;;;6.32;4.82;;;24.00;99.90;;;;;;5090748;28;20209;-72
2021/08/11 07:45:29;;;;;;;5.05;4.25;;;24.00;99.90;;;;;;5091195;28;20251;-74
2021/08/11 07:47:58;;;;;;;6.95;5.05;;;24.20;99.90;;;;;;5090745;28;20229;-75
2021/08/11 07:50:27;;;;;;;5.53;4.72;;;24.30;99.90;;;;;;5090937;28;20205;-73
2021/08/11 07:52:55;;;;;;;8.80;5.00;;;24.40;99.90;;;;;;5090904;28;20205;-74
2021/08/11 07:55:22;;;;;;;5.78;5.28;;;24.60;99.90;;;;;;5090780;28;20251;-75
2021/08/11 07:57:49;;;;;;;5.95;5.28;;;24.60;99.90;;;;;;5090763;28;20735;-73
2021/08/11 08:00:19;;;;;;;5.53;4.45;;;24.70;99.90;;;;;;5090675;28;20669;-77
2021/08/11 08:02:46;;;;;;;6.20;4.63;;;24.70;99.90;;;;;;5100921;28;20250;-73
2021/08/11 08:05:14;;;;;;;6.05;4.93;;;24.60;99.90;;;;;;5109539;28;20208;-76
2021/08/11 08:07:41;;;;;;;5.82;5.05;;;24.60;99.90;;;;;;5110523;28;20224;-76
2021/08/11 08:10:09;;;;;;;5.75;5.05;;;24.90;99.90;;;;;;5109859;28;20256;-74
2021/08/11 08:12:38;;;;;;;5.30;4.80;;;25.30;99.90;;;;;;5106382;28;20205;-76
2021/08/11 08:15:05;;;;;;;6.07;4.57;;;25.10;99.90;;;;;;5107908;28;20740;-77
2021/08/11 08:17:32;;;;;;;7.45;5.28;;;25.30;99.90;;;;;;5107330;28;20208;-76
2021/08/11 08:19:59;;;;;;;6.78;5.32;;;25.50;99.90;;;;;;5110206;28;20201;-76
2021/08/11 08:22:28;;;;;;;4.97;4.30;;;25.40;99.90;;;;;;5100064;28;20614;-76
2021/08/11 08:24:55;;;;;;;5.13;4.57;;;25.30;99.90;;;;;;5100350;28;20205;-76
2021/08/11 08:27:24;;;;;;;5.45;4.75;;;25.60;99.90;;;;;;5103839;28;20311;-73
2021/08/11 08:29:51;;;;;;;7.28;4.72;;;25.70;99.90;;;;;;5101681;28;20206;-76
2021/08/11 08:32:18;;;;;;;7.95;5.53;;;25.80;99.90;;;;;;5106737;28;20236;-76
2021/08/11 08:34:45;;;;;;;7.10;5.53;;;26.00;99.90;;;;;;5104207;28;20263;-72
2021/08/11 08:37:12;;;;;;;11.88;5.43;;;26.00;99.90;;;;;;5107738;28;20262;-77
2021/08/11 08:39:40;;;;;;;6.03;5.43;;;26.10;99.90;;;;;;5106868;28;20200;-76
2021/08/11 08:42:07;;;;;;;6.25;5.63;;;26.50;99.90;;;;;;5102903;28;20665;-77
2021/08/11 08:44:36;;;;;;;5.70;4.57;;;26.60;99.90;;;;;;5108307;28;20890;-77
2021/08/11 08:47:03;;;;;;;8.65;7.07;;;26.50;99.90;;;;;;5105855;28;20308;-77
2021/08/11 08:49:31;;;;;;;4.85;4.45;;;26.80;99.90;;;;;;5106612;28;20197;-74
2021/08/11 08:51:58;;;;;;;5.57;5.07;;;27.00;99.90;;;;;;5103964;28;20985;-75
2021/08/11 08:54:28;;;;;;;5.10;4.60;;;26.90;99.90;;;;;;5106247;28;20298;-76
2021/08/11 08:56:56;;;;;;;7.07;5.38;;;27.00;99.90;;;;;;5105871;28;20201;-74
2021/08/11 08:59:24;;;;;;;13.60;6.22;;;27.00;99.90;;;;;;5105059;28;20201;-76
2021/08/11 09:01:50;;;;;;;5.30;4.78;;;27.30;99.90;;;;;;5107507;28;20204;-77
2021/08/11 09:04:17;;;;;;;7.07;4.22;;;27.20;99.90;;;;;;5106486;28;20265;-76
2021/08/11 09:06:44;;;;;;;7.72;5.45;;;27.50;99.90;;;;;;5106192;28;20201;-75
2021/08/11 09:09:12;;;;;;;5.97;4.53;;;27.50;99.90;;;;;;5105063;28;20580;-73
2021/08/11 09:11:41;;;;;;;7.20;5.22;;;27.70;99.90;;;;;;5107291;28;20628;-75
2021/08/11 09:14:22;;;;;;;5.32;4.57;;;28.00;99.90;;;;;;5105474;28;20201;-74
2021/08/11 09:16:51;;;;;;;5.72;4.05;;;28.30;99.90;;;;;;5102889;28;20253;-74
2021/08/11 09:19:18;;;;;;;4.68;4.28;;;28.40;99.90;;;;;;5106402;28;20727;-74
2021/08/11 09:21:59;;;;;;;5.30;4.47;;;28.50;99.90;;;;;;5107071;28;20741;-75
2021/08/11 09:24:27;;;;;;;6.82;4.95;;;28.80;99.90;;;;;;5106068;28;20277;-75
2021/08/11 09:26:54;;;;;;;5.85;4.97;;;29.20;99.90;;;;;;5107829;28;20257;-74
2021/08/11 09:29:23;;;;;;;5.22;4.72;;;29.00;99.90;;;;;;5105132;28;20208;-75
2021/08/11 09:31:50;;;;;;;5.43;4.65;;;29.90;99.90;;;;;;5105638;28;20660;-74
2021/08/11 09:34:17;;;;;;;6.65;4.82;;;31.30;99.90;;;;;;5103448;28;20205;-74
2021/08/11 09:36:48;;;;;;;5.63;4.47;;;31.40;99.90;;;;;;5104378;28;20236;-75
2021/08/11 09:39:17;;;;;;;4.53;4.18;;;34.40;99.90;;;;;;5104195;28;20208;-74
2021/08/11 09:42:00;;;;;;;4.13;3.83;;;38.00;99.90;;;;;;5107310;28;20203;-74
2021/08/11 09:44:29;;;;;;;4.78;4.05;;;36.30;99.90;;;;;;5102656;28;20567;-74
2021/08/11 09:47:10;;;;;;;5.18;4.68;;;38.70;99.90;;;;;;5108420;28;20250;-74
2021/08/11 09:49:37;;;;;;;4.72;4.32;;;40.30;99.90;;;;;;5112899;28;20208;-75
2021/08/11 09:52:05;;;;;;;5.20;4.55;;;40.00;99.90;;;;;;5103497;28;20676;-75
2021/08/11 09:54:33;;;;;;;7.15;5.53;;;41.00;99.90;;;;;;5112077;28;20260;-75
2021/08/11 09:57:00;;;;;;;5.50;4.65;;;41.50;99.90;;;;;;5107561;28;20201;-75
2021/08/11 09:59:29;;;;;;;4.43;4.13;;;41.70;99.90;;;;;;5083423;28;20213;-75
2021/08/11 10:02:17;;;;;;;5.43;4.93;;;42.50;99.90;;;;;;5109568;27;20738;-74
2021/08/11 10:04:44;;;;;;;4.43;4.03;;;42.40;99.90;;;;;;5110775;28;20616;-75
2021/08/11 10:07:11;;;;;;;6.38;4.65;;;40.60;99.90;;;;;;5109177;28;20205;-74
2021/08/11 10:09:38;;;;;;;4.80;4.40;;;41.80;99.90;;;;;;5110759;28;20258;-75
2021/08/11 10:12:05;;;;;;;5.47;4.03;;;41.20;99.90;;;;;;5109905;28;20200;-75
2021/08/11 10:14:37;;;;;;;4.40;4.03;;;40.60;99.90;;;;;;5111677;28;20200;-75
2021/08/11 10:17:05;;;;;;;7.50;5.03;;;40.10;99.90;;;;;;5111545;28;20204;-75
2021/08/11 10:19:33;;;;;;;4.40;4.10;;;40.70;99.90;;;;;;5110222;28;20243;-75
2021/08/11 10:22:02;;;;;;;5.10;4.20;;;40.00;99.90;;;;;;5109951;28;20200;-75
2021/08/11 10:24:31;;;;;;;4.68;4.13;;;39.10;99.90;;;;;;5108053;28;20261;-74
2021/08/11 10:26:58;;;;;;;5.32;3.75;;;39.60;99.90;;;;;;5109558;28;20558;-76
2021/08/11 10:29:26;;;;;;;4.30;3.90;;;40.60;99.90;;;;;;5111861;28;20273;-75
2021/08/11 10:31:55;;;;;;;4.43;4.03;;;38.80;99.90;;;;;;5110606;28;20668;-74
2021/08/11 10:34:24;;;;;;;5.13;4.72;;;37.70;99.90;;;;;;5112120;28;20215;-74
2021/08/11 10:36:51;;;;;;;6.20;3.88;;;36.80;99.90;;;;;;5109127;28;20250;-75
2021/08/11 10:39:19;;;;;;;5.68;4.38;;;35.30;99.90;;;;;;5110946;28;20268;-74
2021/08/11 10:41:46;;;;;;;6.60;4.15;;;32.70;99.90;;;;;;5093527;28;20205;-74
2021/08/11 10:44:18;;;;;;;4.38;4.07;;;31.50;99.90;;;;;;5092479;28;20212;-74
2021/08/11 10:46:53;;;;;;;7.15;4.93;;;31.50;99.90;;;;;;5092479;28;20205;-74
2021/08/11 10:49:23;;;;;;;5.25;4.85;;;31.10;99.90;;;;;;5101763;28;20242;-75
2021/08/11 10:51:51;;;;;;;5.07;3.72;;;31.20;99.90;;;;;;5108569;28;20254;-75
2021/08/11 10:54:19;;;;;;;5.15;4.28;;;31.10;99.90;;;;;;5110711;28;20208;-75
2021/08/11 10:56:47;;;;;;;5.38;4.20;;;31.30;99.90;;;;;;5107278;27;20241;-74
2021/08/11 10:59:46;;;;;;;5.03;4.53;;;31.40;99.90;;;;;;5110780;28;20212;-75
2021/08/11 11:02:46;;;;;;;4.85;4.38;;;31.40;99.90;;;;;;5110066;28;20257;-73
2021/08/11 11:06:04;;;;;;;6.43;4.25;;;31.70;99.90;;;;;;5110624;28;20667;-73
2021/08/11 11:08:36;;;;;;;4.68;4.03;;;31.70;99.90;;;;;;5066624;28;20747;-74
2021/08/11 11:11:41;;;;;;;5.47;4.55;;;31.70;99.90;;;;;;5106126;28;20208;-74
2021/08/11 11:14:50;;;;;;;7.55;4.97;;;32.00;99.90;;;;;;5107560;28;20227;-75
2021/08/11 11:17:18;;;;;;;4.70;4.30;;;31.50;99.90;;;;;;5109155;28;20243;-75
2021/08/11 11:20:25;;;;;;;5.78;4.18;;;31.30;99.90;;;;;;5109170;28;20616;-73
2021/08/11 11:22:54;;;;;;;4.25;3.85;;;31.00;99.90;;;;;;5106233;28;20291;-74
2021/08/11 11:26:06;;;;;;;4.47;3.78;;;31.00;99.90;;;;;;5110013;28;20204;-75
2021/08/11 11:29:01;;;;;;;7.05;5.07;;;31.00;99.90;;;;;;5110526;28;20314;-74
2021/08/11 11:31:52;;;;;;;9.25;5.00;;;31.20;99.90;;;;;;5108829;28;20219;-75
2021/08/11 11:34:27;;;;;;;8.77;4.82;;;31.40;99.90;;;;;;5110091;28;20592;-74
2021/08/11 11:37:26;;;;;;;5.47;4.68;;;31.60;99.90;;;;;;5108691;28;20211;-75
2021/08/11 11:40:12;;;;;;;5.93;4.85;;;31.80;99.90;;;;;;5094005;28;20205;-74
2021/08/11 11:42:41;;;;;;;4.82;4.13;;;31.80;99.90;;;;;;5091380;28;20221;-74
2021/08/11 11:45:11;;;;;;;4.80;4.30;;;31.80;99.90;;;;;;5089425;28;20209;-75
2021/08/11 11:48:07;;;;;;;6.20;4.55;;;31.80;99.90;;;;;;5091512;28;20577;-74
2021/08/11 11:50:41;;;;;;;5.88;4.60;;;31.30;99.90;;;;;;5080231;28;20212;-75
2021/08/11 11:53:11;;;;;;;4.43;3.83;;;31.50;99.90;;;;;;5091254;28;20257;-75
2021/08/11 11:55:39;;;;;;;5.40;4.70;;;31.90;99.90;;;;;;5093923;28;20291;-73
2021/08/11 11:58:09;;;;;;;4.65;4.25;;;31.90;99.90;;;;;;5100928;28;20312;-74
2021/08/11 12:00:37;;;;;;;4.80;4.40;;;31.50;99.90;;;;;;5105814;28;20204;-74
2021/08/11 12:03:05;;;;;;;5.20;4.63;;;31.80;99.90;;;;;;5107941;28;20570;-74
2021/08/11 12:05:47;;;;;;;6.10;5.20;;;32.10;99.90;;;;;;5106919;28;20204;-74
2021/08/11 12:08:16;;;;;;;5.25;4.72;;;32.30;99.90;;;;;;5100791;28;20315;-75
2021/08/11 12:10:43;;;;;;;5.57;4.95;;;32.20;99.90;;;;;;5109547;28;20283;-74
2021/08/11 12:13:12;;;;;;;5.78;4.10;;;32.20;99.90;;;;;;5106896;28;20261;-74
2021/08/11 12:15:40;;;;;;;5.68;4.43;;;32.20;99.90;;;;;;5107961;28;20208;-74
2021/08/11 12:18:15;;;;;;;6.07;4.80;;;32.10;99.90;;;;;;5109299;28;20667;-75
2021/08/11 12:20:44;;;;;;;4.35;3.95;;;32.00;99.90;;;;;;5109060;28;20208;-75
2021/08/11 12:23:22;;;;;;;5.63;4.47;;;32.30;99.90;;;;;;5107192;28;20210;-75
2021/08/11 12:25:50;;;;;;;4.82;4.40;;;32.30;99.90;;;;;;5103766;28;20199;-75
2021/08/11 12:28:20;;;;;;;5.78;4.10;;;32.30;99.90;;;;;;5107907;28;20232;-75
2021/08/11 12:30:55;;;;;;;7.30;4.80;;;32.30;99.90;;;;;;5109625;28;20192;-75
2021/08/11 12:33:24;;;;;;;5.10;4.28;;;32.20;99.90;;;;;;5109312;28;20214;-74
2021/08/11 12:35:52;;;;;;;5.05;4.35;;;32.20;99.90;;;;;;5104378;28;20249;-75
2021/08/11 12:38:31;;;;;;;4.75;4.35;;;32.50;99.90;;;;;;5105359;28;20209;-75
2021/08/11 12:40:59;;;;;;;4.68;4.28;;;32.30;99.90;;;;;;5108536;28;20252;-75
2021/08/11 12:43:39;;;;;;;5.40;4.18;;;32.20;99.90;;;;;;5106831;28;20261;-74
2021/08/11 12:46:08;;;;;;;5.35;4.57;;;32.40;99.90;;;;;;5108763;28;20592;-74
2021/08/11 12:48:36;;;;;;;4.45;4.05;;;32.60;99.90;;;;;;5108572;28;20220;-74
2021/08/11 12:51:05;;;;;;;3.90;3.60;;;32.30;99.90;;;;;;5109542;28;20248;-75
2021/08/11 12:53:33;;;;;;;4.88;4.32;;;32.50;99.90;;;;;;5107492;28;20200;-76
2021/08/11 12:56:08;;;;;;;6.47;4.55;;;32.40;99.90;;;;;;5107677;28;20209;-75
2021/08/11 12:59:05;;;;;;;5.55;4.85;;;32.30;99.90;;;;;;5106235;28;20626;-75